createdAt,value
2022-10-20T00:00:40.437Z,7.40
2022-10-20T00:01:43.584Z,7.20
2022-10-20T00:02:45.945Z,7.80
2022-10-20T00:03:49.056Z,7.20
2022-10-20T00:04:51.015Z,6.60
2022-10-20T00:05:53.753Z,7.20
2022-10-20T00:06:56.853Z,6.50
2022-10-20T00:07:59.193Z,5.90
2022-10-20T00:09:02.300Z,6.60
2022-10-20T00:10:06.617Z,7.50
2022-10-20T00:11:09.151Z,6.60
2022-10-20T00:12:11.804Z,7.10
2022-10-20T00:13:14.303Z,7.20
2022-10-20T00:14:16.287Z,5.50
2022-10-20T00:15:18.270Z,5.70
2022-10-20T00:16:21.702Z,6.00
2022-10-20T00:17:23.821Z,5.90
2022-10-20T00:18:26.363Z,5.80
2022-10-20T00:19:28.340Z,6.80
2022-10-20T00:20:30.537Z,4.70
2022-10-20T00:21:32.697Z,5.70
2022-10-20T00:22:35.860Z,4.91
2022-10-20T00:23:38.202Z,4.80
2022-10-20T00:24:40.789Z,5.80
2022-10-20T00:25:42.984Z,4.60
2022-10-20T00:26:45.511Z,6.80
2022-10-20T00:27:47.581Z,5.30
2022-10-20T00:28:50.434Z,5.00
2022-10-20T00:29:52.491Z,5.30
2022-10-20T00:30:55.570Z,5.00
2022-10-20T00:31:57.541Z,4.90
2022-10-20T00:32:59.730Z,4.00
2022-10-20T00:34:01.814Z,5.60
2022-10-20T00:35:05.308Z,4.90
2022-10-20T00:36:10.428Z,4.00
2022-10-20T00:37:13.003Z,4.00
2022-10-20T00:38:16.265Z,4.80
2022-10-20T00:39:18.270Z,4.20
2022-10-20T00:40:20.445Z,4.70
2022-10-20T00:41:23.510Z,4.80
2022-10-20T00:42:25.641Z,4.90
2022-10-20T00:45:17.579Z,5.90
2022-10-20T00:46:25.589Z,4.60
2022-10-20T00:47:37.379Z,5.80
2022-10-20T00:48:40.318Z,5.10
2022-10-20T00:49:42.999Z,5.00
2022-10-20T00:50:51.861Z,4.50
2022-10-20T00:51:53.892Z,4.20
2022-10-20T00:52:56.211Z,4.00
2022-10-20T00:55:20.044Z,4.80
2022-10-20T00:56:22.277Z,4.70
2022-10-20T00:57:24.348Z,4.50
2022-10-20T00:58:26.459Z,3.50
2022-10-20T00:59:31.241Z,4.90
2022-10-20T01:00:33.374Z,3.00
2022-10-20T01:01:37.878Z,4.10
2022-10-20T01:02:41.950Z,3.80
2022-10-20T01:03:46.477Z,3.50
2022-10-20T01:04:48.536Z,4.30
2022-10-20T01:05:52.082Z,4.91
2022-10-20T01:06:54.838Z,2.70
2022-10-20T01:07:56.902Z,3.80
2022-10-20T01:08:59.457Z,3.00
2022-10-20T01:10:02.165Z,3.36
2022-10-20T01:11:13.151Z,3.60
2022-10-20T01:12:22.118Z,3.00
2022-10-20T01:14:46.413Z,3.60
2022-10-20T01:17:44.554Z,3.00
2022-10-20T01:20:28.410Z,2.60
2022-10-20T01:21:46.527Z,2.50
2022-10-20T01:23:20.066Z,2.10
2022-10-20T01:24:32.270Z,3.00
2022-10-20T01:25:58.871Z,3.70
2022-10-20T01:27:23.093Z,2.20
2022-10-20T01:28:28.985Z,2.20
2022-10-20T01:31:04.529Z,3.00
2022-10-20T01:32:22.419Z,2.00
2022-10-20T01:33:40.699Z,2.00
2022-10-20T01:34:48.063Z,2.50
2022-10-20T01:36:01.650Z,2.00
2022-10-20T01:37:19.741Z,2.60
2022-10-20T01:38:24.368Z,3.10
2022-10-20T01:39:30.262Z,2.20
2022-10-20T01:42:02.999Z,2.50
2022-10-20T01:43:07.649Z,2.20
2022-10-20T01:44:10.803Z,2.10
2022-10-20T01:45:13.444Z,2.60
2022-10-20T01:46:17.356Z,1.55
2022-10-20T01:47:19.963Z,1.40
2022-10-20T01:48:23.349Z,2.60
2022-10-20T01:49:25.392Z,1.73
2022-10-20T01:50:27.578Z,2.60
2022-10-20T01:51:29.996Z,1.70
2022-10-20T01:52:33.292Z,1.70
2022-10-20T01:53:35.994Z,2.50
2022-10-20T01:54:38.140Z,1.70
2022-10-20T01:55:40.464Z,2.20
2022-10-20T01:58:19.794Z,1.60
2022-10-20T01:59:43.492Z,2.50
2022-10-20T02:00:46.391Z,1.00
2022-10-20T02:01:57.964Z,1.55
2022-10-20T02:05:06.611Z,1.60
2022-10-20T02:06:13.197Z,1.40
2022-10-20T02:07:18.946Z,2.20
2022-10-20T02:08:27.939Z,2.10
2022-10-20T02:09:36.946Z,1.40
2022-10-20T02:10:47.577Z,1.60
2022-10-20T02:13:08.293Z,1.10
2022-10-20T02:14:12.046Z,1.10
2022-10-20T02:15:17.234Z,1.70
2022-10-20T02:17:46.349Z,1.20
2022-10-20T02:18:48.370Z,1.00
2022-10-20T02:19:51.667Z,2.00
2022-10-20T02:20:55.271Z,1.20
2022-10-20T02:21:57.411Z,1.80
2022-10-20T02:23:00.156Z,1.30
2022-10-20T02:24:05.099Z,0.64
2022-10-20T02:26:22.885Z,0.00
2022-10-20T02:27:31.692Z,1.70
2022-10-20T02:28:34.934Z,1.60
2022-10-20T02:30:53.105Z,1.10
2022-10-20T02:31:55.619Z,1.00
2022-10-20T02:32:57.697Z,1.00
2022-10-20T02:34:00.827Z,1.00
2022-10-20T02:35:08.900Z,1.40
2022-10-20T02:36:19.640Z,0.80
2022-10-20T02:37:21.777Z,0.20
2022-10-20T02:38:24.368Z,1.40
2022-10-20T02:39:26.921Z,1.00
2022-10-20T02:40:31.040Z,1.00
2022-10-20T02:41:33.055Z,0.50
2022-10-20T02:42:35.475Z,1.20
2022-10-20T02:43:37.477Z,1.60
2022-10-20T02:44:39.473Z,1.00
2022-10-20T02:45:42.460Z,1.60
2022-10-20T02:46:44.662Z,1.00
2022-10-20T02:47:46.692Z,0.50
2022-10-20T02:48:48.698Z,1.00
2022-10-20T02:49:51.163Z,0.30
2022-10-20T02:50:54.085Z,0.64
2022-10-20T02:51:58.031Z,0.80
2022-10-20T02:53:00.075Z,1.40
2022-10-20T02:54:15.868Z,1.20
2022-10-20T02:56:20.656Z,0.55
2022-10-20T02:57:22.655Z,0.40
2022-10-20T02:58:25.310Z,1.30
2022-10-20T02:59:27.474Z,1.55
2022-10-20T03:00:29.538Z,0.40
2022-10-20T03:01:31.650Z,0.80
2022-10-20T03:02:33.889Z,0.00
2022-10-20T03:03:35.864Z,1.00
2022-10-20T03:04:38.009Z,1.60
2022-10-20T03:05:40.620Z,1.30
2022-10-20T03:06:42.679Z,1.60
2022-10-20T03:07:45.696Z,1.00
2022-10-20T03:08:47.841Z,1.00
2022-10-20T03:09:50.293Z,1.80
2022-10-20T03:10:52.439Z,1.00
2022-10-20T03:11:54.540Z,1.60
2022-10-20T03:12:56.495Z,2.00
2022-10-20T03:13:59.770Z,1.70
2022-10-20T03:15:02.556Z,1.00
2022-10-20T03:16:05.319Z,2.27
2022-10-20T03:17:08.391Z,1.09
2022-10-20T03:18:11.461Z,2.00
2022-10-20T03:19:13.924Z,1.70
2022-10-20T03:20:17.615Z,1.80
2022-10-20T03:21:20.485Z,2.00
2022-10-20T03:22:22.711Z,1.80
2022-10-20T03:23:24.926Z,2.00
2022-10-20T03:24:27.465Z,2.70
2022-10-20T03:25:31.561Z,2.90
2022-10-20T03:26:33.773Z,2.70
2022-10-20T03:27:36.840Z,2.00
2022-10-20T03:28:39.546Z,1.80
2022-10-20T03:29:42.319Z,3.10
2022-10-20T03:30:45.287Z,2.00
2022-10-20T03:32:50.456Z,1.50
2022-10-20T03:33:52.813Z,1.20
2022-10-20T03:34:55.650Z,1.50
2022-10-20T03:35:58.233Z,2.00
2022-10-20T03:37:00.403Z,1.20
2022-10-20T03:38:03.269Z,1.00
2022-10-20T03:39:05.223Z,1.80
2022-10-20T03:40:08.891Z,1.30
2022-10-20T03:41:10.915Z,1.50
2022-10-20T03:42:14.172Z,1.70
2022-10-20T03:43:16.713Z,2.50
2022-10-20T03:44:19.193Z,1.00
2022-10-20T03:45:21.336Z,1.40
2022-10-20T03:46:24.154Z,1.60
2022-10-20T03:47:26.150Z,1.20
2022-10-20T03:48:28.737Z,1.00
2022-10-20T03:49:33.079Z,1.30
2022-10-20T03:50:37.782Z,1.40
2022-10-20T03:51:40.803Z,0.00
2022-10-20T03:52:42.946Z,1.10
2022-10-20T03:53:44.932Z,1.50
2022-10-20T03:54:47.521Z,1.00
2022-10-20T03:55:49.511Z,1.00
2022-10-20T03:56:52.797Z,1.50
2022-10-20T03:57:56.382Z,2.00
2022-10-20T03:58:58.920Z,1.00
2022-10-20T04:00:01.981Z,0.70
2022-10-20T04:01:07.021Z,1.00
2022-10-20T04:03:26.460Z,1.00
2022-10-20T04:04:28.872Z,1.00
2022-10-20T04:05:31.247Z,1.50
2022-10-20T04:06:33.886Z,1.50
2022-10-20T04:07:36.467Z,1.40
2022-10-20T04:08:38.886Z,1.00
2022-10-20T04:09:40.998Z,2.30
2022-10-20T04:10:43.185Z,1.60
2022-10-20T04:11:45.483Z,1.00
2022-10-20T04:12:47.980Z,1.30
2022-10-20T04:13:49.935Z,0.20
2022-10-20T04:14:51.949Z,0.60
2022-10-20T04:15:54.301Z,1.00
2022-10-20T04:16:56.491Z,1.00
2022-10-20T04:17:58.557Z,1.70
2022-10-20T04:19:00.553Z,2.00
2022-10-20T04:20:04.093Z,1.20
2022-10-20T04:21:06.356Z,0.90
2022-10-20T04:22:08.337Z,0.80
2022-10-20T04:23:10.331Z,1.10
2022-10-20T04:24:12.508Z,1.70
2022-10-20T04:25:14.759Z,2.10
2022-10-20T04:26:17.766Z,1.20
2022-10-20T04:27:20.334Z,1.00
2022-10-20T04:28:22.984Z,1.00
2022-10-20T04:29:26.957Z,1.10
2022-10-20T04:30:29.186Z,0.90
2022-10-20T04:31:31.695Z,1.70
2022-10-20T04:32:33.946Z,1.18
2022-10-20T04:33:35.936Z,0.90
2022-10-20T04:34:38.399Z,1.30
2022-10-20T04:35:40.438Z,2.10
2022-10-20T04:36:43.423Z,1.30
2022-10-20T04:37:45.552Z,1.00
2022-10-20T04:38:47.613Z,1.20
2022-10-20T04:39:50.731Z,1.00
2022-10-20T04:42:06.936Z,1.00
2022-10-20T04:43:08.941Z,1.70
2022-10-20T04:44:10.901Z,1.00
2022-10-20T04:45:12.899Z,2.40
2022-10-20T04:46:15.753Z,1.64
2022-10-20T04:47:17.873Z,2.00
2022-10-20T04:48:19.851Z,3.00
2022-10-20T04:49:22.388Z,2.90
2022-10-20T04:50:24.645Z,3.00
2022-10-20T04:51:28.952Z,1.90
2022-10-20T04:52:31.155Z,2.30
2022-10-20T04:53:33.699Z,2.00
2022-10-20T04:54:36.524Z,3.36
2022-10-20T04:55:38.520Z,3.50
2022-10-20T04:56:40.681Z,4.00
2022-10-20T04:57:42.781Z,4.20
2022-10-20T04:58:49.108Z,4.80
2022-10-20T04:59:51.140Z,4.40
2022-10-20T05:00:53.417Z,4.10
2022-10-20T05:01:55.457Z,3.90
2022-10-20T05:02:58.284Z,3.30
2022-10-20T05:04:01.530Z,4.91
2022-10-20T05:05:04.486Z,3.50
2022-10-20T05:06:16.549Z,4.80
2022-10-20T05:07:19.422Z,1.20
2022-10-20T05:08:22.508Z,4.10
2022-10-20T05:09:24.861Z,4.50
2022-10-20T05:10:27.545Z,4.90
2022-10-20T05:11:30.514Z,5.00
2022-10-20T05:12:33.718Z,3.60
2022-10-20T05:13:38.649Z,3.50
2022-10-20T05:14:41.903Z,4.00
2022-10-20T05:15:43.924Z,3.60
2022-10-20T05:16:47.396Z,3.50
2022-10-20T05:17:49.610Z,4.45
2022-10-20T05:18:51.653Z,4.80
2022-10-20T05:19:53.867Z,3.80
2022-10-20T05:21:08.351Z,4.20
2022-10-20T05:22:00.416Z,2.50
2022-10-20T05:23:02.994Z,3.80
2022-10-20T05:24:05.943Z,3.00
2022-10-20T05:25:31.245Z,3.00
2022-10-20T05:26:16.622Z,3.50
2022-10-20T05:27:18.820Z,2.40
2022-10-20T05:28:21.144Z,4.10
2022-10-20T05:29:23.679Z,3.20
2022-10-20T05:30:25.869Z,3.30
2022-10-20T05:31:28.741Z,4.10
2022-10-20T05:32:31.608Z,2.40
2022-10-20T05:33:34.999Z,3.73
2022-10-20T05:34:37.087Z,3.60
2022-10-20T05:35:39.700Z,2.00
2022-10-20T05:36:42.184Z,2.30
2022-10-20T05:37:45.316Z,2.91
2022-10-20T05:38:47.306Z,2.30
2022-10-20T05:39:49.881Z,3.20
2022-10-20T05:40:52.216Z,2.91
2022-10-20T05:41:54.336Z,2.20
2022-10-20T05:42:58.172Z,2.80
2022-10-20T05:44:02.365Z,2.30
2022-10-20T05:45:06.730Z,2.80
2022-10-20T05:46:10.323Z,2.40
2022-10-20T05:47:12.494Z,2.18
2022-10-20T05:48:15.636Z,2.50
2022-10-20T05:49:17.820Z,2.20
2022-10-20T05:50:20.565Z,2.40
2022-10-20T05:51:25.668Z,2.00
2022-10-20T05:52:28.653Z,2.60
2022-10-20T05:53:32.129Z,2.80
2022-10-20T05:54:34.903Z,2.18
2022-10-20T05:55:37.614Z,2.20
2022-10-20T05:56:39.865Z,2.09
2022-10-20T05:57:42.543Z,0.80
2022-10-20T05:58:44.636Z,2.00
2022-10-20T05:59:47.389Z,2.80
2022-10-20T06:00:49.619Z,2.30
2022-10-20T06:01:52.153Z,2.00
2022-10-20T06:02:55.724Z,2.40
2022-10-20T06:03:59.458Z,1.90
2022-10-20T06:05:01.674Z,1.40
2022-10-20T06:06:05.442Z,1.30
2022-10-20T06:07:07.784Z,2.00
2022-10-20T06:08:09.793Z,1.70
2022-10-20T06:09:11.989Z,1.10
2022-10-20T06:10:16.299Z,2.00
2022-10-20T06:11:18.563Z,1.70
2022-10-20T06:12:21.037Z,1.90
2022-10-20T06:13:24.101Z,2.50
2022-10-20T06:14:26.398Z,1.50
2022-10-20T06:15:29.408Z,1.70
2022-10-20T06:16:31.615Z,1.30
2022-10-20T06:17:33.692Z,0.80
2022-10-20T06:18:35.823Z,1.20
2022-10-20T06:19:37.792Z,1.00
2022-10-20T06:20:40.284Z,1.60
2022-10-20T06:22:44.460Z,1.50
2022-10-20T06:23:47.140Z,1.50
2022-10-20T06:24:49.308Z,1.60
2022-10-20T06:25:52.747Z,1.00
2022-10-20T06:26:56.522Z,1.10
2022-10-20T06:27:58.727Z,1.20
2022-10-20T06:29:04.386Z,1.40
2022-10-20T06:30:06.315Z,0.60
2022-10-20T06:32:25.066Z,0.80
2022-10-20T06:33:30.220Z,0.70
2022-10-20T06:34:32.602Z,0.20
2022-10-20T06:35:34.975Z,1.40
2022-10-20T06:36:38.494Z,1.70
2022-10-20T06:37:41.004Z,1.20
2022-10-20T06:38:43.793Z,1.40
2022-10-20T06:39:46.197Z,0.73
2022-10-20T06:40:48.853Z,1.50
2022-10-20T06:41:52.629Z,0.80
2022-10-20T06:43:58.957Z,0.00
2022-10-20T06:45:01.032Z,0.00
2022-10-20T06:46:05.800Z,1.00
2022-10-20T06:47:08.761Z,1.10
2022-10-20T06:48:10.910Z,1.30
2022-10-20T06:49:13.462Z,0.80
2022-10-20T06:50:16.286Z,0.82
2022-10-20T06:51:18.943Z,0.90
2022-10-20T06:52:22.843Z,0.20
2022-10-20T06:53:25.458Z,1.00
2022-10-20T06:54:27.819Z,1.20
2022-10-20T06:55:29.964Z,1.90
2022-10-20T06:56:34.445Z,0.10
2022-10-20T06:57:37.173Z,1.50
2022-10-20T06:58:40.697Z,0.80
2022-10-20T06:59:43.213Z,0.90
2022-10-20T07:00:45.655Z,1.40
2022-10-20T07:01:47.877Z,0.80
2022-10-20T07:02:50.117Z,1.00
2022-10-20T07:03:54.435Z,0.00
2022-10-20T07:04:57.083Z,1.30
2022-10-20T07:05:59.037Z,0.80
2022-10-20T07:07:01.285Z,0.30
2022-10-20T07:08:03.706Z,1.40
2022-10-20T07:09:06.681Z,0.80
2022-10-20T07:10:10.484Z,0.09
2022-10-20T07:11:14.325Z,1.00
2022-10-20T07:12:17.132Z,0.00
2022-10-20T07:13:19.186Z,1.00
2022-10-20T07:14:21.189Z,1.10
2022-10-20T07:15:24.291Z,1.00
2022-10-20T07:16:28.724Z,0.30
2022-10-20T07:17:31.924Z,1.00
2022-10-20T07:18:36.073Z,0.00
2022-10-20T07:19:39.408Z,1.20
2022-10-20T07:20:42.029Z,1.10
2022-10-20T07:21:45.661Z,0.80
2022-10-20T07:22:48.020Z,1.00
2022-10-20T07:23:51.184Z,1.60
2022-10-20T07:24:53.188Z,0.80
2022-10-20T07:26:03.542Z,3.00
2022-10-20T07:27:05.722Z,1.20
2022-10-20T07:28:07.922Z,1.60
2022-10-20T07:29:10.131Z,1.00
2022-10-20T07:30:13.013Z,1.60
2022-10-20T07:31:17.341Z,1.50
2022-10-20T07:32:20.293Z,1.20
2022-10-20T07:33:22.775Z,0.00
2022-10-20T07:34:26.690Z,2.20
2022-10-20T07:35:31.022Z,1.20
2022-10-20T07:36:36.002Z,0.09
2022-10-20T07:37:38.354Z,1.00
2022-10-20T07:38:41.567Z,0.90
2022-10-20T07:39:44.147Z,1.00
2022-10-20T07:40:46.988Z,0.55
2022-10-20T07:41:49.560Z,0.40
2022-10-20T07:42:53.062Z,0.50
2022-10-20T07:43:56.155Z,1.00
2022-10-20T07:44:58.422Z,1.40
2022-10-20T07:46:00.998Z,1.30
2022-10-20T07:47:05.137Z,1.70
2022-10-20T07:48:08.236Z,1.00
2022-10-20T07:50:16.272Z,0.60
2022-10-20T07:51:24.792Z,1.90
2022-10-20T07:52:26.920Z,1.70
2022-10-20T07:53:29.000Z,0.20
2022-10-20T07:54:32.064Z,1.00
2022-10-20T07:55:38.582Z,2.50
2022-10-20T07:56:42.019Z,1.40
2022-10-20T07:57:44.729Z,2.30
2022-10-20T07:58:48.122Z,2.27
2022-10-20T07:59:50.253Z,2.70
2022-10-20T08:00:52.856Z,1.90
2022-10-20T08:02:00.081Z,2.20
2022-10-20T08:03:02.850Z,1.30
2022-10-20T08:04:05.657Z,2.00
2022-10-20T08:05:09.747Z,1.40
2022-10-20T08:06:12.272Z,2.70
2022-10-20T08:07:14.370Z,1.50
2022-10-20T08:08:17.703Z,1.30
2022-10-20T08:09:19.758Z,2.10
2022-10-20T08:10:29.061Z,2.10
2022-10-20T08:11:43.910Z,2.00
2022-10-20T08:12:48.640Z,1.60
2022-10-20T08:13:52.380Z,3.20
2022-10-20T08:16:27.253Z,1.80
2022-10-20T08:17:29.685Z,1.60
2022-10-20T08:18:36.194Z,2.00
2022-10-20T08:19:41.892Z,1.50
2022-10-20T08:20:45.315Z,1.60
2022-10-20T08:21:48.009Z,2.00
2022-10-20T08:22:50.134Z,2.80
2022-10-20T08:23:52.202Z,3.50
2022-10-20T08:24:55.700Z,1.00
2022-10-20T08:25:57.883Z,2.10
2022-10-20T08:27:00.650Z,2.20
2022-10-20T08:28:03.512Z,2.18
2022-10-20T08:29:05.519Z,2.00
2022-10-20T08:30:24.542Z,0.50
2022-10-20T08:31:12.876Z,1.70
2022-10-20T08:32:14.969Z,1.80
2022-10-20T08:33:16.940Z,2.00
2022-10-20T08:34:19.289Z,2.00
2022-10-20T08:35:21.675Z,2.30
2022-10-20T08:36:23.888Z,2.10
2022-10-20T08:37:29.324Z,2.00
2022-10-20T08:38:33.386Z,2.50
2022-10-20T08:39:35.402Z,2.60
2022-10-20T08:40:37.596Z,2.80
2022-10-20T08:42:51.708Z,3.50
2022-10-20T08:43:57.361Z,3.80
2022-10-20T08:45:00.459Z,3.20
2022-10-20T08:46:02.543Z,2.40
2022-10-20T08:47:07.423Z,2.20
2022-10-20T08:48:13.402Z,2.80
2022-10-20T08:50:35.414Z,3.00
2022-10-20T08:51:39.097Z,2.80
2022-10-20T08:52:42.141Z,2.00
2022-10-20T08:53:45.635Z,2.60
2022-10-20T08:54:49.149Z,2.10
2022-10-20T08:55:52.333Z,2.00
2022-10-20T08:56:54.594Z,3.20
2022-10-20T08:58:04.440Z,2.90
2022-10-20T08:59:28.698Z,2.20
2022-10-20T09:00:31.926Z,3.00
2022-10-20T09:01:34.688Z,3.30
2022-10-20T09:02:37.501Z,2.09
2022-10-20T09:03:39.461Z,3.20
2022-10-20T09:06:04.796Z,1.50
2022-10-20T09:07:25.607Z,2.30
2022-10-20T09:08:28.899Z,2.40
2022-10-20T09:09:32.465Z,1.50
2022-10-20T09:10:36.239Z,2.10
2022-10-20T09:11:39.447Z,1.90
2022-10-20T09:12:43.295Z,1.90
2022-10-20T09:13:46.116Z,1.00
2022-10-20T09:14:48.214Z,3.40
2022-10-20T09:17:16.186Z,3.40
2022-10-20T09:18:18.286Z,2.50
2022-10-20T09:19:22.157Z,2.20
2022-10-20T09:20:44.838Z,2.70
2022-10-20T09:21:49.311Z,1.90
2022-10-20T09:22:52.616Z,2.40
2022-10-20T09:23:56.814Z,1.80
2022-10-20T09:24:58.970Z,1.80
2022-10-20T09:26:01.550Z,2.50
2022-10-20T09:27:21.938Z,3.80
2022-10-20T09:28:27.204Z,3.20
2022-10-20T09:29:37.024Z,6.60
2022-10-20T09:30:41.401Z,7.40
2022-10-20T09:31:45.685Z,7.90
2022-10-20T09:32:48.373Z,10.30
2022-10-20T09:33:51.477Z,7.90
2022-10-20T09:36:13.922Z,5.80
2022-10-20T09:37:17.610Z,10.00
2022-10-20T09:38:22.027Z,14.80
2022-10-20T09:39:27.341Z,15.60
2022-10-20T09:40:30.270Z,18.00
2022-10-20T09:41:32.642Z,17.90
2022-10-20T09:42:36.286Z,16.90
2022-10-20T09:43:53.228Z,18.30
2022-10-20T09:46:10.485Z,17.10
2022-10-20T09:47:14.055Z,19.00
2022-10-20T09:48:25.767Z,17.30
2022-10-20T09:50:42.329Z,13.00
2022-10-20T09:51:47.507Z,12.10
2022-10-20T09:52:50.734Z,12.00
2022-10-20T09:54:04.777Z,11.70
2022-10-20T09:55:30.266Z,14.10
2022-10-20T09:57:49.820Z,12.10
2022-10-20T09:58:52.497Z,9.50
2022-10-20T09:59:54.573Z,12.70
2022-10-20T10:01:13.448Z,14.10
2022-10-20T10:02:22.402Z,11.30
2022-10-20T10:03:25.454Z,12.10
2022-10-20T10:04:38.837Z,8.70
2022-10-20T10:05:41.364Z,12.40
2022-10-20T10:06:44.061Z,13.36
2022-10-20T10:09:32.101Z,13.60
2022-10-20T10:10:34.258Z,12.00
2022-10-20T10:11:36.465Z,12.00
2022-10-20T10:12:39.107Z,11.70
2022-10-20T10:13:44.008Z,6.90
2022-10-20T10:15:00.651Z,10.80
2022-10-20T10:16:08.229Z,11.60
2022-10-20T10:17:11.419Z,14.00
2022-10-20T10:18:14.569Z,11.50
2022-10-20T10:19:18.610Z,12.20
2022-10-20T10:20:27.681Z,12.80
2022-10-20T10:21:30.760Z,10.20
2022-10-20T10:22:33.641Z,13.00
2022-10-20T12:27:29.729Z,6.10
2022-10-20T12:28:32.553Z,5.20
2022-10-20T12:29:38.765Z,5.70
2022-10-20T12:30:42.365Z,4.80
2022-10-20T12:32:25.601Z,5.60
2022-10-20T12:33:43.729Z,6.00
2022-10-20T12:34:48.932Z,6.20
2022-10-20T12:36:00.168Z,5.70
2022-10-20T12:38:20.603Z,5.10
2022-10-20T12:39:23.935Z,5.82
2022-10-20T12:40:32.740Z,6.30
2022-10-20T12:41:36.445Z,6.60
2022-10-20T12:42:49.341Z,5.60
2022-10-20T12:43:57.467Z,4.90
2022-10-20T12:45:05.801Z,5.80
2022-10-20T12:46:10.052Z,6.50
2022-10-20T12:47:30.021Z,5.80
2022-10-20T12:48:33.177Z,5.00
2022-10-20T12:49:40.118Z,6.00
2022-10-20T12:50:46.169Z,5.80
2022-10-20T12:51:52.708Z,4.20
2022-10-20T12:52:54.869Z,4.80
2022-10-20T12:54:00.480Z,4.20
2022-10-20T12:55:23.561Z,5.80
2022-10-20T12:56:28.383Z,4.40
2022-10-20T12:59:09.406Z,5.60
2022-10-20T13:00:21.911Z,5.00
2022-10-20T13:01:26.435Z,6.00
2022-10-20T13:02:30.590Z,6.20
2022-10-20T13:03:41.842Z,5.50
2022-10-20T13:05:08.690Z,4.10
2022-10-20T13:06:28.042Z,5.50
2022-10-20T13:07:49.634Z,6.00
2022-10-20T13:10:33.409Z,4.70
2022-10-20T13:11:40.276Z,6.10
2022-10-20T13:12:42.418Z,6.50
2022-10-20T13:14:01.636Z,4.50
2022-10-20T13:15:05.272Z,5.90
2022-10-20T13:16:15.830Z,5.80
2022-10-20T13:18:39.617Z,5.20
2022-10-20T13:21:10.307Z,3.20
2022-10-20T13:22:34.241Z,4.50
2022-10-20T13:23:38.390Z,6.00
2022-10-20T13:24:44.906Z,5.00
2022-10-20T13:25:49.135Z,5.90
2022-10-20T13:26:55.628Z,4.10
2022-10-20T13:28:07.507Z,3.60
2022-10-20T13:29:22.073Z,3.90
2022-10-20T13:30:24.740Z,3.90
2022-10-20T13:31:35.833Z,4.40
2022-10-20T13:33:01.604Z,3.20
2022-10-20T13:35:29.110Z,3.50
2022-10-20T13:36:47.268Z,3.60
2022-10-20T13:39:23.952Z,3.10
2022-10-20T13:40:36.659Z,3.30
2022-10-20T13:42:01.046Z,3.50
2022-10-20T13:43:22.835Z,4.10
2022-10-20T13:44:48.798Z,2.90
2022-10-20T13:45:54.734Z,4.00
2022-10-20T13:47:04.214Z,3.50
2022-10-20T13:49:53.047Z,3.70
2022-10-20T13:51:00.845Z,2.80
2022-10-20T13:52:05.954Z,3.80
2022-10-20T13:54:31.181Z,1.90
2022-10-20T13:57:01.945Z,3.00
2022-10-20T13:58:09.857Z,3.20
2022-10-20T13:59:27.918Z,3.20
2022-10-20T14:00:31.961Z,2.50
2022-10-20T14:01:35.220Z,1.90
2022-10-20T14:02:38.831Z,4.20
2022-10-20T14:03:44.340Z,3.50
2022-10-20T14:04:48.208Z,2.90
2022-10-20T14:05:50.502Z,2.60
2022-10-20T14:06:52.850Z,3.60
2022-10-20T14:07:55.138Z,3.40
2022-10-20T14:08:59.903Z,3.30
2022-10-20T14:10:02.129Z,2.50
2022-10-20T14:11:04.487Z,3.00
2022-10-20T14:12:21.602Z,2.70
2022-10-20T14:13:29.375Z,3.30
2022-10-20T14:14:32.453Z,2.70
2022-10-20T14:15:36.605Z,3.80
2022-10-20T14:16:38.750Z,0.50
2022-10-20T14:17:41.087Z,4.80
2022-10-20T14:18:43.167Z,3.50
2022-10-20T14:19:46.890Z,3.00
2022-10-20T14:21:07.607Z,3.90
2022-10-20T14:22:16.882Z,3.50
2022-10-20T14:23:19.983Z,3.80
2022-10-20T14:25:38.762Z,2.60
2022-10-20T14:26:42.203Z,4.30
2022-10-20T14:27:44.887Z,2.60
2022-10-20T14:28:48.110Z,2.64
2022-10-20T14:29:51.599Z,3.40
2022-10-20T14:30:55.026Z,2.70
2022-10-20T14:31:57.757Z,3.50
2022-10-20T14:33:00.395Z,3.30
2022-10-20T14:34:02.927Z,4.40
2022-10-20T14:35:23.039Z,2.80
2022-10-20T14:37:37.884Z,3.50
2022-10-20T14:38:40.929Z,2.20
2022-10-20T14:39:43.173Z,3.36
2022-10-20T14:42:23.468Z,2.30
2022-10-20T14:43:34.887Z,1.00
2022-10-20T14:44:37.021Z,3.50
2022-10-20T14:45:39.886Z,2.90
2022-10-20T14:46:45.092Z,3.00
2022-10-20T14:47:47.259Z,2.40
2022-10-20T14:48:49.659Z,2.40
2022-10-20T14:49:53.732Z,1.40
2022-10-20T14:50:55.990Z,2.00
2022-10-20T14:51:59.787Z,3.00
2022-10-20T14:53:25.494Z,2.70
2022-10-20T14:54:38.821Z,2.60
2022-10-20T14:55:41.701Z,2.80
2022-10-20T14:57:59.570Z,2.50
2022-10-20T14:59:04.084Z,2.30
2022-10-20T15:00:26.531Z,3.00
2022-10-20T15:01:30.833Z,2.10
2022-10-20T15:02:38.866Z,1.90
2022-10-20T15:03:41.129Z,2.60
2022-10-20T15:04:45.450Z,3.00
2022-10-20T15:05:50.777Z,3.10
2022-10-20T15:07:12.579Z,3.50
2022-10-20T15:08:26.325Z,2.20
2022-10-20T15:09:44.231Z,1.20
2022-10-20T15:10:47.179Z,2.90
2022-10-20T15:11:49.238Z,3.27
2022-10-20T15:12:52.196Z,3.00
2022-10-20T15:13:55.315Z,2.90
2022-10-20T15:16:36.754Z,2.40
2022-10-20T15:19:11.561Z,2.00
2022-10-20T17:07:09.778Z,5.00
2022-10-20T17:08:12.562Z,6.60
2022-10-20T17:09:14.655Z,8.10
2022-10-20T17:10:18.925Z,7.20
2022-10-20T17:11:26.349Z,8.73
2022-10-20T17:12:29.194Z,5.80
2022-10-20T17:13:32.253Z,6.70
2022-10-20T17:15:37.873Z,7.40
2022-10-20T17:16:40.842Z,8.60
2022-10-20T17:17:43.158Z,8.27
2022-10-20T17:18:46.672Z,7.40
2022-10-20T17:19:49.501Z,7.80
2022-10-20T17:24:03.089Z,9.09
2022-10-20T17:26:14.885Z,10.90
2022-10-20T17:28:19.586Z,9.90
2022-10-20T17:29:23.649Z,8.70
2022-10-20T17:30:25.913Z,11.80
2022-10-20T17:35:38.045Z,10.80
2022-10-20T17:36:40.778Z,13.70
2022-10-20T17:37:42.975Z,12.20
2022-10-20T17:43:59.238Z,9.30
2022-10-20T17:45:01.926Z,13.80
2022-10-20T17:46:06.229Z,8.60
2022-10-20T17:47:09.491Z,10.70
2022-10-20T17:48:11.716Z,11.40
2022-10-20T17:49:14.839Z,9.91
2022-10-20T17:50:17.719Z,6.20
2022-10-20T17:51:24.303Z,11.80
2022-10-20T17:52:28.709Z,11.40
2022-10-20T17:53:32.022Z,8.80
2022-10-20T17:54:35.251Z,10.60
2022-10-20T17:55:37.285Z,8.70
2022-10-20T17:56:39.572Z,9.90
2022-10-20T17:57:41.983Z,11.20
2022-10-20T17:58:45.506Z,8.70
2022-10-20T17:59:53.460Z,11.50
2022-10-20T18:00:56.663Z,12.20
2022-10-20T18:01:57.683Z,8.40
2022-10-20T18:03:00.092Z,7.40
2022-10-20T18:05:20.091Z,10.20
2022-10-20T18:06:23.299Z,10.50
2022-10-20T18:07:25.518Z,9.40
2022-10-20T18:08:28.134Z,9.60
2022-10-20T18:09:30.823Z,10.90
2022-10-20T18:10:33.072Z,10.70
2022-10-20T18:11:35.711Z,11.40
2022-10-20T18:12:38.464Z,12.91
2022-10-20T18:13:41.192Z,10.36
2022-10-20T18:14:44.909Z,11.00
2022-10-20T18:15:46.968Z,11.70
2022-10-20T18:16:49.065Z,14.00
2022-10-20T18:17:51.133Z,8.40
2022-10-20T18:18:54.604Z,13.33
2022-10-20T18:19:58.811Z,13.50
2022-10-20T18:21:01.172Z,10.30
2022-10-20T18:22:03.741Z,15.40
2022-10-20T18:23:06.867Z,15.20
2022-10-20T18:24:11.138Z,15.40
2022-10-20T18:25:13.604Z,14.80
2022-10-20T18:26:18.353Z,17.00
2022-10-20T18:27:21.403Z,15.30
2022-10-20T18:28:23.657Z,18.70
2022-10-20T18:29:26.038Z,17.20
2022-10-20T18:30:29.130Z,13.90
2022-10-20T18:31:31.807Z,16.40
2022-10-20T18:32:34.927Z,18.60
2022-10-20T18:33:38.477Z,17.60
2022-10-20T18:34:40.671Z,18.60
2022-10-20T18:35:43.916Z,18.60
2022-10-20T18:36:46.516Z,18.50
2022-10-20T18:37:48.755Z,14.10
2022-10-20T18:38:50.875Z,16.30
2022-10-20T18:39:52.992Z,15.50
2022-10-20T18:40:55.191Z,17.60
2022-10-20T18:41:59.531Z,13.09
2022-10-20T18:43:01.661Z,16.10
2022-10-20T18:45:20.367Z,12.00
2022-10-20T18:46:22.651Z,15.40
2022-10-20T18:47:24.755Z,16.60
2022-10-20T18:48:28.128Z,16.50
2022-10-20T18:49:30.345Z,15.80
2022-10-20T18:50:32.646Z,12.90
2022-10-20T18:51:35.718Z,14.70
2022-10-20T18:52:37.877Z,18.55
2022-10-20T18:54:43.493Z,17.50
2022-10-20T18:55:45.469Z,14.90
2022-10-20T18:56:47.675Z,11.40
2022-10-20T18:57:49.693Z,14.00
2022-10-20T18:58:53.877Z,1.30
2022-10-20T18:59:55.902Z,9.90
2022-10-20T19:01:03.642Z,12.80
2022-10-20T19:02:05.939Z,12.30
2022-10-20T19:03:08.437Z,8.90
2022-10-20T19:04:12.560Z,8.10
2022-10-20T19:05:15.784Z,8.70
2022-10-20T19:06:33.569Z,9.30
2022-10-20T19:07:36.055Z,10.30
2022-10-20T19:08:39.416Z,10.60
2022-10-20T19:09:41.852Z,9.82
2022-10-20T19:10:44.068Z,9.00
2022-10-20T19:11:47.045Z,6.50
2022-10-20T19:12:49.908Z,8.10
2022-10-20T19:13:53.180Z,8.09
2022-10-20T19:14:56.244Z,8.70
2022-10-20T19:15:58.589Z,7.80
2022-10-20T19:17:02.504Z,10.10
2022-10-20T19:18:04.698Z,9.50
2022-10-20T19:19:07.075Z,11.70
2022-10-20T19:20:10.156Z,8.80
2022-10-20T19:21:12.374Z,8.55
2022-10-20T19:22:14.635Z,7.30
2022-10-20T19:23:16.813Z,7.50
2022-10-20T19:24:22.646Z,7.10
2022-10-20T19:25:24.779Z,9.00
2022-10-20T19:27:43.842Z,6.70
2022-10-20T19:28:54.780Z,7.40
2022-10-20T19:29:54.872Z,7.20
2022-10-20T19:30:57.184Z,7.60
2022-10-20T19:32:00.162Z,6.50